sensor_id;sensor_type;location;lat;lon;timestamp;pressure;altitude;pressure_sealevel;temperature;humidity
25855;BME280;13680;49.936;11.344;2023-09-30T00:01:54;97344.09;;;18.32;73.13
25855;BME280;13680;49.936;11.344;2023-09-30T00:04:20;97345.03;;;18.36;73.11
25855;BME280;13680;49.936;11.344;2023-09-30T00:06:45;97344.81;;;18.41;72.87
25855;BME280;13680;49.936;11.344;2023-09-30T00:09:10;97345.06;;;18.48;72.79
25855;BME280;13680;49.936;11.344;2023-09-30T00:11:37;97336.78;;;18.57;72.25
25855;BME280;13680;49.936;11.344;2023-09-30T00:14:02;97342.00;;;18.62;72.02
25855;BME280;13680;49.936;11.344;2023-09-30T00:16:27;97341.09;;;18.58;71.73
25855;BME280;13680;49.936;11.344;2023-09-30T00:18:53;97332.81;;;18.67;71.51
25855;BME280;13680;49.936;11.344;2023-09-30T00:21:19;97347.56;;;18.66;71.89
25855;BME280;13680;49.936;11.344;2023-09-30T00:23:44;97353.50;;;18.68;71.80
25855;BME280;13680;49.936;11.344;2023-09-30T00:26:10;97351.34;;;18.74;71.16
25855;BME280;13680;49.936;11.344;2023-09-30T00:28:35;97342.03;;;18.75;71.43
25855;BME280;13680;49.936;11.344;2023-09-30T00:31:00;97331.81;;;18.72;71.73
25855;BME280;13680;49.936;11.344;2023-09-30T00:33:26;97331.47;;;18.73;71.36
25855;BME280;13680;49.936;11.344;2023-09-30T00:35:51;97321.47;;;18.77;71.37
25855;BME280;13680;49.936;11.344;2023-09-30T00:38:16;97332.03;;;18.79;71.46
25855;BME280;13680;49.936;11.344;2023-09-30T00:40:49;97332.38;;;18.77;71.82
25855;BME280;13680;49.936;11.344;2023-09-30T00:43:19;97334.22;;;18.86;71.33
25855;BME280;13680;49.936;11.344;2023-09-30T00:45:44;97335.78;;;18.87;71.39
25855;BME280;13680;49.936;11.344;2023-09-30T00:48:10;97343.88;;;18.83;71.90
25855;BME280;13680;49.936;11.344;2023-09-30T00:50:35;97343.53;;;18.85;72.05
25855;BME280;13680;49.936;11.344;2023-09-30T00:53:01;97343.53;;;18.85;72.06
25855;BME280;13680;49.936;11.344;2023-09-30T00:55:26;97336.13;;;18.85;71.84
25855;BME280;13680;49.936;11.344;2023-09-30T00:57:52;97342.06;;;18.87;71.66
25855;BME280;13680;49.936;11.344;2023-09-30T01:00:17;97338.31;;;18.92;71.24
25855;BME280;13680;49.936;11.344;2023-09-30T01:02:44;97350.47;;;18.94;71.57
25855;BME280;13680;49.936;11.344;2023-09-30T01:05:10;97348.97;;;18.85;71.28
25855;BME280;13680;49.936;11.344;2023-09-30T01:07:36;97347.66;;;18.91;71.44
25855;BME280;13680;49.936;11.344;2023-09-30T01:10:02;97351.75;;;18.97;71.39
25855;BME280;13680;49.936;11.344;2023-09-30T01:12:28;97348.00;;;19.02;70.81
25855;BME280;13680;49.936;11.344;2023-09-30T01:14:59;97356.63;;;19.04;70.68
25855;BME280;13680;49.936;11.344;2023-09-30T01:17:25;97352.78;;;19.05;70.91
25855;BME280;13680;49.936;11.344;2023-09-30T01:19:51;97351.19;;;19.04;70.52
25855;BME280;13680;49.936;11.344;2023-09-30T01:22:17;97350.28;;;19.00;70.82
25855;BME280;13680;49.936;11.344;2023-09-30T01:24:43;97356.50;;;19.00;70.91
25855;BME280;13680;49.936;11.344;2023-09-30T01:27:09;97353.19;;;18.94;71.33
25855;BME280;13680;49.936;11.344;2023-09-30T01:29:34;97352.41;;;18.94;71.23
25855;BME280;13680;49.936;11.344;2023-09-30T01:32:02;97354.22;;;18.90;71.69
25855;BME280;13680;49.936;11.344;2023-09-30T01:34:30;97346.38;;;18.88;71.57
25855;BME280;13680;49.936;11.344;2023-09-30T01:36:55;97358.06;;;18.89;70.85
25855;BME280;13680;49.936;11.344;2023-09-30T01:39:20;97350.47;;;18.94;71.23
25855;BME280;13680;49.936;11.344;2023-09-30T01:41:46;97354.34;;;18.93;71.39
25855;BME280;13680;49.936;11.344;2023-09-30T01:44:11;97369.88;;;18.80;71.26
25855;BME280;13680;49.936;11.344;2023-09-30T01:46:37;97369.88;;;18.80;71.69
25855;BME280;13680;49.936;11.344;2023-09-30T01:49:02;97368.63;;;18.90;71.51
25855;BME280;13680;49.936;11.344;2023-09-30T01:51:29;97364.91;;;18.95;71.27
25855;BME280;13680;49.936;11.344;2023-09-30T01:53:55;97363.44;;;18.97;71.18
25855;BME280;13680;49.936;11.344;2023-09-30T01:56:20;97366.28;;;19.01;70.81
25855;BME280;13680;49.936;11.344;2023-09-30T01:58:45;97375.13;;;18.98;71.07
25855;BME280;13680;49.936;11.344;2023-09-30T02:01:11;97371.50;;;18.94;71.30
25855;BME280;13680;49.936;11.344;2023-09-30T02:03:36;97375.59;;;19.00;70.97
25855;BME280;13680;49.936;11.344;2023-09-30T02:06:02;97372.41;;;18.98;71.40
25855;BME280;13680;49.936;11.344;2023-09-30T02:08:28;97370.25;;;18.91;71.73
25855;BME280;13680;49.936;11.344;2023-09-30T02:10:54;97367.63;;;18.95;71.78
25855;BME280;13680;49.936;11.344;2023-09-30T02:13:19;97365.91;;;18.90;72.10
25855;BME280;13680;49.936;11.344;2023-09-30T02:15:45;97364.22;;;18.98;71.81
25855;BME280;13680;49.936;11.344;2023-09-30T02:18:10;97368.19;;;19.01;71.67
25855;BME280;13680;49.936;11.344;2023-09-30T02:20:36;97380.34;;;18.91;72.32
25855;BME280;13680;49.936;11.344;2023-09-30T02:23:10;97380.78;;;18.93;71.97
25855;BME280;13680;49.936;11.344;2023-09-30T02:25:37;97389.66;;;18.90;72.32
25855;BME280;13680;49.936;11.344;2023-09-30T02:28:03;97393.69;;;18.84;72.45
25855;BME280;13680;49.936;11.344;2023-09-30T02:30:29;97380.56;;;18.86;72.71
25855;BME280;13680;49.936;11.344;2023-09-30T02:32:54;97382.59;;;18.89;72.79
25855;BME280;13680;49.936;11.344;2023-09-30T02:35:21;97389.38;;;18.83;73.69
25855;BME280;13680;49.936;11.344;2023-09-30T02:37:46;97394.75;;;18.91;73.73
25855;BME280;13680;49.936;11.344;2023-09-30T02:40:12;97398.09;;;18.97;73.51
25855;BME280;13680;49.936;11.344;2023-09-30T02:42:40;97408.50;;;18.95;73.93
25855;BME280;13680;49.936;11.344;2023-09-30T02:45:07;97417.31;;;18.79;76.36
25855;BME280;13680;49.936;11.344;2023-09-30T02:47:36;97438.66;;;18.23;77.54
25855;BME280;13680;49.936;11.344;2023-09-30T02:50:05;97439.59;;;17.76;80.87
25855;BME280;13680;49.936;11.344;2023-09-30T02:52:31;97453.06;;;16.95;81.18
25855;BME280;13680;49.936;11.344;2023-09-30T02:54:56;97456.88;;;17.11;81.96
25855;BME280;13680;49.936;11.344;2023-09-30T02:57:23;97440.56;;;17.11;81.44
25855;BME280;13680;49.936;11.344;2023-09-30T02:59:48;97438.25;;;17.22;79.35
25855;BME280;13680;49.936;11.344;2023-09-30T03:02:13;97440.94;;;16.83;81.03
25855;BME280;13680;49.936;11.344;2023-09-30T03:04:40;97436.63;;;16.74;80.71
25855;BME280;13680;49.936;11.344;2023-09-30T03:07:05;97441.94;;;16.70;81.73
25855;BME280;13680;49.936;11.344;2023-09-30T03:09:31;97444.44;;;16.93;80.93
25855;BME280;13680;49.936;11.344;2023-09-30T03:11:56;97443.66;;;16.83;81.01
25855;BME280;13680;49.936;11.344;2023-09-30T03:14:24;97454.00;;;16.99;80.15
25855;BME280;13680;49.936;11.344;2023-09-30T03:16:50;97442.06;;;16.91;80.16
25855;BME280;13680;49.936;11.344;2023-09-30T03:19:15;97434.53;;;16.88;79.79
25855;BME280;13680;49.936;11.344;2023-09-30T03:21:44;97441.75;;;16.84;81.29
25855;BME280;13680;49.936;11.344;2023-09-30T03:24:09;97434.59;;;16.62;80.83
25855;BME280;13680;49.936;11.344;2023-09-30T03:26:35;97451.34;;;16.81;80.18
25855;BME280;13680;49.936;11.344;2023-09-30T03:29:00;97462.22;;;16.73;80.32
25855;BME280;13680;49.936;11.344;2023-09-30T03:31:26;97457.72;;;16.77;79.33
25855;BME280;13680;49.936;11.344;2023-09-30T03:33:51;97466.31;;;16.88;78.98
25855;BME280;13680;49.936;11.344;2023-09-30T03:36:21;97472.59;;;16.79;79.09
25855;BME280;13680;49.936;11.344;2023-09-30T03:38:49;97473.38;;;16.80;78.09
25855;BME280;13680;49.936;11.344;2023-09-30T03:41:15;97479.28;;;16.82;78.69
25855;BME280;13680;49.936;11.344;2023-09-30T03:43:40;97482.63;;;16.88;78.41
25855;BME280;13680;49.936;11.344;2023-09-30T03:46:09;97495.44;;;16.96;78.31
25855;BME280;13680;49.936;11.344;2023-09-30T03:48:34;97492.69;;;16.87;78.12
25855;BME280;13680;49.936;11.344;2023-09-30T03:51:13;97488.06;;;16.88;78.21
25855;BME280;13680;49.936;11.344;2023-09-30T03:53:43;97491.25;;;16.90;78.29
25855;BME280;13680;49.936;11.344;2023-09-30T03:56:09;97478.47;;;16.90;78.72
25855;BME280;13680;49.936;11.344;2023-09-30T03:58:42;97481.16;;;16.90;79.26
25855;BME280;13680;49.936;11.344;2023-09-30T04:01:11;97492.38;;;16.97;79.15
25855;BME280;13680;49.936;11.344;2023-09-30T04:03:40;97499.75;;;16.97;79.01
25855;BME280;13680;49.936;11.344;2023-09-30T04:06:05;97495.28;;;16.92;79.09
25855;BME280;13680;49.936;11.344;2023-09-30T04:08:34;97482.47;;;16.93;79.52
25855;BME280;13680;49.936;11.344;2023-09-30T04:11:00;97480.91;;;16.92;79.93
25855;BME280;13680;49.936;11.344;2023-09-30T04:13:26;97476.59;;;16.91;80.21
25855;BME280;13680;49.936;11.344;2023-09-30T04:15:52;97485.84;;;16.98;79.74
25855;BME280;13680;49.936;11.344;2023-09-30T04:18:18;97490.94;;;17.00;80.29
25855;BME280;13680;49.936;11.344;2023-09-30T04:20:45;97501.31;;;16.98;80.51
25855;BME280;13680;49.936;11.344;2023-09-30T04:23:12;97502.91;;;16.99;80.92
25855;BME280;13680;49.936;11.344;2023-09-30T04:25:38;97504.38;;;16.96;81.58
25855;BME280;13680;49.936;11.344;2023-09-30T04:28:03;97507.72;;;17.02;81.15
25855;BME280;13680;49.936;11.344;2023-09-30T04:30:29;97513.78;;;16.99;80.43
25855;BME280;13680;49.936;11.344;2023-09-30T04:32:54;97508.06;;;16.92;80.89
25855;BME280;13680;49.936;11.344;2023-09-30T04:35:20;97508.84;;;16.92;81.62
25855;BME280;13680;49.936;11.344;2023-09-30T04:37:45;97505.00;;;17.02;81.31
25855;BME280;13680;49.936;11.344;2023-09-30T04:40:11;97515.91;;;16.93;80.54
25855;BME280;13680;49.936;11.344;2023-09-30T04:42:45;97503.72;;;16.82;80.82
25855;BME280;13680;49.936;11.344;2023-09-30T04:45:13;97505.00;;;16.76;80.92
25855;BME280;13680;49.936;11.344;2023-09-30T04:47:41;97507.25;;;16.82;80.94
25855;BME280;13680;49.936;11.344;2023-09-30T04:50:09;97505.00;;;16.84;80.92
25855;BME280;13680;49.936;11.344;2023-09-30T04:52:36;97499.25;;;16.86;80.59
25855;BME280;13680;49.936;11.344;2023-09-30T04:55:02;97506.59;;;16.85;80.02
25855;BME280;13680;49.936;11.344;2023-09-30T04:57:31;97511.72;;;16.78;80.17
25855;BME280;13680;49.936;11.344;2023-09-30T04:59:59;97520.34;;;16.80;79.93
25855;BME280;13680;49.936;11.344;2023-09-30T05:02:27;97519.41;;;16.67;80.07
25855;BME280;13680;49.936;11.344;2023-09-30T05:04:52;97536.97;;;16.52;78.02
25855;BME280;13680;49.936;11.344;2023-09-30T05:07:20;97546.38;;;16.29;77.97
25855;BME280;13680;49.936;11.344;2023-09-30T05:09:46;97549.25;;;16.32;78.41
25855;BME280;13680;49.936;11.344;2023-09-30T05:12:12;97559.16;;;16.37;78.97
25855;BME280;13680;49.936;11.344;2023-09-30T05:14:37;97546.38;;;16.46;78.40
25855;BME280;13680;49.936;11.344;2023-09-30T05:17:04;97547.47;;;16.10;78.03
25855;BME280;13680;49.936;11.344;2023-09-30T05:19:30;97541.28;;;16.36;77.11
25855;BME280;13680;49.936;11.344;2023-09-30T05:21:57;97532.81;;;16.38;77.39
25855;BME280;13680;49.936;11.344;2023-09-30T05:24:22;97528.81;;;16.35;78.39
25855;BME280;13680;49.936;11.344;2023-09-30T05:26:47;97532.50;;;16.48;78.17
25855;BME280;13680;49.936;11.344;2023-09-30T05:29:13;97543.53;;;16.51;77.88
25855;BME280;13680;49.936;11.344;2023-09-30T05:31:38;97543.69;;;16.46;78.83
25855;BME280;13680;49.936;11.344;2023-09-30T05:34:04;97548.63;;;16.44;78.82
25855;BME280;13680;49.936;11.344;2023-09-30T05:36:29;97560.28;;;16.36;79.32
25855;BME280;13680;49.936;11.344;2023-09-30T05:38:55;97553.09;;;16.40;79.42
25855;BME280;13680;49.936;11.344;2023-09-30T05:41:21;97563.63;;;16.33;79.79
25855;BME280;13680;49.936;11.344;2023-09-30T05:43:47;97565.22;;;16.34;77.77
25855;BME280;13680;49.936;11.344;2023-09-30T05:46:12;97578.34;;;16.41;77.48
25855;BME280;13680;49.936;11.344;2023-09-30T05:48:38;97587.13;;;16.46;77.08
25855;BME280;13680;49.936;11.344;2023-09-30T05:51:04;97586.78;;;16.48;76.57
25855;BME280;13680;49.936;11.344;2023-09-30T05:53:31;97583.28;;;16.47;76.32
25855;BME280;13680;49.936;11.344;2023-09-30T05:55:58;97578.03;;;16.51;76.73
25855;BME280;13680;49.936;11.344;2023-09-30T05:58:25;97588.88;;;16.51;77.16
25855;BME280;13680;49.936;11.344;2023-09-30T06:00:51;97587.91;;;16.56;77.73
25855;BME280;13680;49.936;11.344;2023-09-30T06:03:17;97590.97;;;16.54;78.86
25855;BME280;13680;49.936;11.344;2023-09-30T06:05:42;97601.03;;;16.53;78.78
25855;BME280;13680;49.936;11.344;2023-09-30T06:08:09;97608.69;;;16.51;78.21
25855;BME280;13680;49.936;11.344;2023-09-30T06:10:39;97611.06;;;16.53;77.20
25855;BME280;13680;49.936;11.344;2023-09-30T06:13:08;97611.25;;;16.57;77.00
25855;BME280;13680;49.936;11.344;2023-09-30T06:15:37;97608.03;;;16.55;76.66
25855;BME280;13680;49.936;11.344;2023-09-30T06:18:02;97612.50;;;16.50;76.83
25855;BME280;13680;49.936;11.344;2023-09-30T06:20:29;97610.44;;;16.47;76.52
25855;BME280;13680;49.936;11.344;2023-09-30T06:22:56;97622.91;;;16.48;76.47
25855;BME280;13680;49.936;11.344;2023-09-30T06:25:22;97626.88;;;16.42;76.43
25855;BME280;13680;49.936;11.344;2023-09-30T06:27:49;97627.19;;;16.32;76.29
25855;BME280;13680;49.936;11.344;2023-09-30T06:30:16;97626.72;;;16.47;75.99
25855;BME280;13680;49.936;11.344;2023-09-30T06:32:42;97621.75;;;16.49;76.46
25855;BME280;13680;49.936;11.344;2023-09-30T06:35:08;97622.44;;;16.55;75.84
25855;BME280;13680;49.936;11.344;2023-09-30T06:37:37;97632.00;;;16.52;74.60
25855;BME280;13680;49.936;11.344;2023-09-30T06:40:04;97627.19;;;16.49;74.00
25855;BME280;13680;49.936;11.344;2023-09-30T06:42:32;97620.66;;;16.50;74.18
25855;BME280;13680;49.936;11.344;2023-09-30T06:44:58;97624.66;;;16.53;73.50
25855;BME280;13680;49.936;11.344;2023-09-30T06:47:24;97621.94;;;16.62;73.25
25855;BME280;13680;49.936;11.344;2023-09-30T06:49:49;97635.72;;;16.74;72.99
25855;BME280;13680;49.936;11.344;2023-09-30T06:52:15;97639.06;;;16.80;72.81
25855;BME280;13680;49.936;11.344;2023-09-30T06:54:40;97626.59;;;16.88;72.30
25855;BME280;13680;49.936;11.344;2023-09-30T06:57:05;97618.78;;;16.86;72.24
25855;BME280;13680;49.936;11.344;2023-09-30T06:59:32;97641.78;;;16.89;72.49
25855;BME280;13680;49.936;11.344;2023-09-30T07:01:57;97647.53;;;16.78;71.78
25855;BME280;13680;49.936;11.344;2023-09-30T07:04:22;97641.34;;;17.04;71.10
25855;BME280;13680;49.936;11.344;2023-09-30T07:06:48;97640.53;;;17.04;69.26
25855;BME280;13680;49.936;11.344;2023-09-30T07:09:13;97648.69;;;16.95;69.56
25855;BME280;13680;49.936;11.344;2023-09-30T07:11:38;97651.19;;;16.82;69.33
25855;BME280;13680;49.936;11.344;2023-09-30T07:14:04;97649.31;;;17.09;68.79
25855;BME280;13680;49.936;11.344;2023-09-30T07:16:29;97653.19;;;16.91;69.52
25855;BME280;13680;49.936;11.344;2023-09-30T07:18:55;97651.41;;;16.95;68.82
25855;BME280;13680;49.936;11.344;2023-09-30T07:21:20;97658.25;;;16.83;69.17
25855;BME280;13680;49.936;11.344;2023-09-30T07:23:46;97666.25;;;16.89;67.98
25855;BME280;13680;49.936;11.344;2023-09-30T07:26:13;97668.03;;;16.93;68.16
25855;BME280;13680;49.936;11.344;2023-09-30T07:28:39;97662.25;;;16.86;67.92
25855;BME280;13680;49.936;11.344;2023-09-30T07:31:05;97673.88;;;16.69;68.38
25855;BME280;13680;49.936;11.344;2023-09-30T07:33:30;97686.84;;;16.81;68.91
25855;BME280;13680;49.936;11.344;2023-09-30T07:35:56;97686.56;;;17.00;69.57
25855;BME280;13680;49.936;11.344;2023-09-30T07:38:22;97688.03;;;17.06;68.92
25855;BME280;13680;49.936;11.344;2023-09-30T07:40:48;97684.16;;;17.25;68.63
25855;BME280;13680;49.936;11.344;2023-09-30T07:43:14;97694.75;;;17.17;67.73
25855;BME280;13680;49.936;11.344;2023-09-30T07:45:39;97693.59;;;17.27;67.75
25855;BME280;13680;49.936;11.344;2023-09-30T07:48:07;97689.00;;;17.45;67.47
25855;BME280;13680;49.936;11.344;2023-09-30T07:50:36;97683.50;;;17.63;67.40
25855;BME280;13680;49.936;11.344;2023-09-30T07:53:01;97694.56;;;17.58;66.36
25855;BME280;13680;49.936;11.344;2023-09-30T07:55:27;97689.28;;;17.53;67.04
25855;BME280;13680;49.936;11.344;2023-09-30T07:57:52;97683.81;;;17.70;66.23
25855;BME280;13680;49.936;11.344;2023-09-30T08:00:18;97687.47;;;17.74;66.86
25855;BME280;13680;49.936;11.344;2023-09-30T08:02:44;97684.09;;;17.95;67.61
25855;BME280;13680;49.936;11.344;2023-09-30T08:05:09;97683.28;;;17.86;67.35
25855;BME280;13680;49.936;11.344;2023-09-30T08:07:35;97688.09;;;17.89;65.71
25855;BME280;13680;49.936;11.344;2023-09-30T08:10:01;97683.59;;;17.93;63.96
25855;BME280;13680;49.936;11.344;2023-09-30T08:12:30;97685.22;;;18.03;63.79
25855;BME280;13680;49.936;11.344;2023-09-30T08:14:55;97681.50;;;17.90;63.80
25855;BME280;13680;49.936;11.344;2023-09-30T08:17:21;97684.91;;;18.34;62.29
25855;BME280;13680;49.936;11.344;2023-09-30T08:19:46;97682.88;;;18.22;61.88
25855;BME280;13680;49.936;11.344;2023-09-30T08:22:13;97694.22;;;18.63;61.59
25855;BME280;13680;49.936;11.344;2023-09-30T08:24:38;97684.38;;;19.01;60.14
25855;BME280;13680;49.936;11.344;2023-09-30T08:27:04;97687.47;;;19.20;58.87
25855;BME280;13680;49.936;11.344;2023-09-30T08:29:32;97685.03;;;19.40;57.33
25855;BME280;13680;49.936;11.344;2023-09-30T08:31:57;97685.44;;;19.84;57.19
25855;BME280;13680;49.936;11.344;2023-09-30T08:34:23;97693.00;;;19.66;57.92
25855;BME280;13680;49.936;11.344;2023-09-30T08:36:49;97699.22;;;20.00;57.71
25855;BME280;13680;49.936;11.344;2023-09-30T08:39:14;97690.88;;;20.42;55.85
25855;BME280;13680;49.936;11.344;2023-09-30T08:41:39;97695.06;;;20.52;55.95
25855;BME280;13680;49.936;11.344;2023-09-30T08:44:05;97699.75;;;20.52;56.49
25855;BME280;13680;49.936;11.344;2023-09-30T08:46:32;97692.13;;;20.57;54.28
25855;BME280;13680;49.936;11.344;2023-09-30T08:49:00;97694.25;;;20.27;53.96
25855;BME280;13680;49.936;11.344;2023-09-30T08:51:26;97694.72;;;20.17;55.24
25855;BME280;13680;49.936;11.344;2023-09-30T08:53:54;97695.25;;;19.98;55.16
25855;BME280;13680;49.936;11.344;2023-09-30T08:56:24;97698.25;;;20.17;55.38
25855;BME280;13680;49.936;11.344;2023-09-30T08:58:50;97693.59;;;20.55;54.74
25855;BME280;13680;49.936;11.344;2023-09-30T09:01:16;97699.28;;;20.50;53.35
25855;BME280;13680;49.936;11.344;2023-09-30T09:03:41;97699.03;;;20.18;55.43
25855;BME280;13680;49.936;11.344;2023-09-30T09:06:07;97699.94;;;20.09;54.91
25855;BME280;13680;49.936;11.344;2023-09-30T09:08:32;97687.16;;;19.89;56.71
25855;BME280;13680;49.936;11.344;2023-09-30T09:10:59;97676.97;;;20.23;56.70
25855;BME280;13680;49.936;11.344;2023-09-30T09:13:26;97669.94;;;20.47;54.37
25855;BME280;13680;49.936;11.344;2023-09-30T09:16:08;97677.44;;;20.62;54.34
25855;BME280;13680;49.936;11.344;2023-09-30T09:18:34;97688.59;;;20.69;53.26
25855;BME280;13680;49.936;11.344;2023-09-30T09:21:15;97691.78;;;20.71;52.45
25855;BME280;13680;49.936;11.344;2023-09-30T09:23:45;97690.59;;;20.97;52.48
25855;BME280;13680;49.936;11.344;2023-09-30T09:26:31;97706.81;;;20.77;50.64
25855;BME280;13680;49.936;11.344;2023-09-30T09:29:04;97692.44;;;21.05;51.90
25855;BME280;13680;49.936;11.344;2023-09-30T09:31:34;97694.06;;;20.57;52.11
25855;BME280;13680;49.936;11.344;2023-09-30T09:34:01;97695.41;;;20.38;53.13
25855;BME280;13680;49.936;11.344;2023-09-30T09:39:04;97710.47;;;19.86;54.86
25855;BME280;13680;49.936;11.344;2023-09-30T09:41:29;97708.66;;;19.90;54.41
25855;BME280;13680;49.936;11.344;2023-09-30T09:43:56;97707.84;;;19.90;54.35
25855;BME280;13680;49.936;11.344;2023-09-30T09:46:24;97715.56;;;20.21;54.32
25855;BME280;13680;49.936;11.344;2023-09-30T09:48:51;97712.34;;;20.07;53.48
25855;BME280;13680;49.936;11.344;2023-09-30T09:51:18;97710.84;;;19.97;53.31
25855;BME280;13680;49.936;11.344;2023-09-30T09:53:43;97722.41;;;19.60;54.17
25855;BME280;13680;49.936;11.344;2023-09-30T09:56:09;97715.25;;;19.35;55.28
25855;BME280;13680;49.936;11.344;2023-09-30T09:58:35;97715.41;;;19.72;54.68
25855;BME280;13680;49.936;11.344;2023-09-30T10:01:07;97722.06;;;19.83;53.67
25855;BME280;13680;49.936;11.344;2023-09-30T10:03:35;97717.06;;;20.31;51.95
25855;BME280;13680;49.936;11.344;2023-09-30T10:06:02;97704.38;;;21.01;50.80
25855;BME280;13680;49.936;11.344;2023-09-30T10:08:37;97713.59;;;21.08;50.08
25855;BME280;13680;49.936;11.344;2023-09-30T10:11:04;97707.34;;;21.08;49.96
25855;BME280;13680;49.936;11.344;2023-09-30T10:13:50;97697.19;;;21.78;48.53
25855;BME280;13680;49.936;11.344;2023-09-30T10:19:20;97696.47;;;22.41;45.98
25855;BME280;13680;49.936;11.344;2023-09-30T10:22:26;97700.88;;;22.97;45.38
25855;BME280;13680;49.936;11.344;2023-09-30T10:24:53;97698.28;;;23.20;45.17
25855;BME280;13680;49.936;11.344;2023-09-30T10:29:47;97700.00;;;22.58;45.07
25855;BME280;13680;49.936;11.344;2023-09-30T10:32:12;97686.75;;;22.95;43.17
25855;BME280;13680;49.936;11.344;2023-09-30T10:34:39;97694.13;;;23.11;43.54
25855;BME280;13680;49.936;11.344;2023-09-30T10:37:20;97697.38;;;22.81;44.01
25855;BME280;13680;49.936;11.344;2023-09-30T10:39:53;97692.53;;;23.10;43.65
25855;BME280;13680;49.936;11.344;2023-09-30T10:42:48;97708.47;;;23.20;43.96
25855;BME280;13680;49.936;11.344;2023-09-30T10:51:01;97690.41;;;22.83;44.20
25855;BME280;13680;49.936;11.344;2023-09-30T10:53:27;97674.78;;;23.03;45.17
25855;BME280;13680;49.936;11.344;2023-09-30T10:55:57;97676.59;;;23.15;45.58
25855;BME280;13680;49.936;11.344;2023-09-30T10:58:47;97674.22;;;22.78;43.48
25855;BME280;13680;49.936;11.344;2023-09-30T11:01:14;97670.13;;;22.52;44.55
25855;BME280;13680;49.936;11.344;2023-09-30T11:03:41;97674.19;;;23.14;45.76
25855;BME280;13680;49.936;11.344;2023-09-30T11:06:07;97668.88;;;23.60;42.72
25855;BME280;13680;49.936;11.344;2023-09-30T11:08:33;97664.41;;;23.52;41.97
25855;BME280;13680;49.936;11.344;2023-09-30T11:10:59;97670.56;;;23.45;41.90
25855;BME280;13680;49.936;11.344;2023-09-30T11:13:33;97675.00;;;23.73;42.26
25855;BME280;13680;49.936;11.344;2023-09-30T11:16:04;97663.69;;;23.55;42.63
25855;BME280;13680;49.936;11.344;2023-09-30T11:18:30;97675.19;;;23.84;42.73
25855;BME280;13680;49.936;11.344;2023-09-30T11:21:05;97668.84;;;23.80;42.47
25855;BME280;13680;49.936;11.344;2023-09-30T11:23:31;97668.09;;;23.40;42.77
25855;BME280;13680;49.936;11.344;2023-09-30T11:25:57;97673.66;;;23.44;43.06
25855;BME280;13680;49.936;11.344;2023-09-30T11:28:22;97667.09;;;23.72;41.65
25855;BME280;13680;49.936;11.344;2023-09-30T11:30:58;97662.41;;;24.38;40.83
25855;BME280;13680;49.936;11.344;2023-09-30T11:33:25;97654.66;;;24.71;39.98
25855;BME280;13680;49.936;11.344;2023-09-30T11:36:03;97649.47;;;25.26;40.38
25855;BME280;13680;49.936;11.344;2023-09-30T11:38:31;97644.38;;;26.04;38.80
25855;BME280;13680;49.936;11.344;2023-09-30T11:41:05;97644.03;;;26.05;37.95
25855;BME280;13680;49.936;11.344;2023-09-30T11:43:35;97652.69;;;25.02;39.00
25855;BME280;13680;49.936;11.344;2023-09-30T11:46:08;97634.97;;;26.05;37.72
25855;BME280;13680;49.936;11.344;2023-09-30T11:48:58;97636.78;;;26.35;37.17
25855;BME280;13680;49.936;11.344;2023-09-30T11:51:25;97640.97;;;26.18;37.07
25855;BME280;13680;49.936;11.344;2023-09-30T11:53:52;97637.56;;;26.35;37.40
25855;BME280;13680;49.936;11.344;2023-09-30T11:56:25;97630.84;;;26.88;36.93
25855;BME280;13680;49.936;11.344;2023-09-30T11:58:55;97625.91;;;26.56;36.57
25855;BME280;13680;49.936;11.344;2023-09-30T12:01:21;97626.88;;;26.86;36.28
25855;BME280;13680;49.936;11.344;2023-09-30T12:03:48;97629.03;;;26.55;36.71
25855;BME280;13680;49.936;11.344;2023-09-30T12:06:13;97642.97;;;26.73;35.46
25855;BME280;13680;49.936;11.344;2023-09-30T12:08:41;97632.97;;;27.24;34.53
25855;BME280;13680;49.936;11.344;2023-09-30T12:11:06;97631.47;;;27.44;35.24
25855;BME280;13680;49.936;11.344;2023-09-30T12:13:32;97633.94;;;27.97;32.83
25855;BME280;13680;49.936;11.344;2023-09-30T12:15:57;97639.09;;;28.31;31.98
25855;BME280;13680;49.936;11.344;2023-09-30T12:18:23;97638.69;;;28.32;32.29
25855;BME280;13680;49.936;11.344;2023-09-30T12:20:50;97623.31;;;28.13;32.35
25855;BME280;13680;49.936;11.344;2023-09-30T12:23:17;97607.47;;;28.24;32.15
25855;BME280;13680;49.936;11.344;2023-09-30T12:25:43;97600.94;;;27.12;33.47
25855;BME280;13680;49.936;11.344;2023-09-30T12:28:09;97606.66;;;27.81;32.86
25855;BME280;13680;49.936;11.344;2023-09-30T12:30:34;97605.09;;;27.94;31.55
25855;BME280;13680;49.936;11.344;2023-09-30T12:32:59;97598.78;;;27.83;31.90
25855;BME280;13680;49.936;11.344;2023-09-30T12:35:24;97603.41;;;27.32;32.77
25855;BME280;13680;49.936;11.344;2023-09-30T12:37:50;97607.00;;;27.39;32.52
25855;BME280;13680;49.936;11.344;2023-09-30T12:40:16;97610.63;;;28.01;32.13
25855;BME280;13680;49.936;11.344;2023-09-30T12:42:43;97609.06;;;28.11;30.94
25855;BME280;13680;49.936;11.344;2023-09-30T12:45:10;97607.88;;;28.05;31.77
25855;BME280;13680;49.936;11.344;2023-09-30T12:47:35;97601.94;;;28.06;31.04
25855;BME280;13680;49.936;11.344;2023-09-30T12:50:00;97605.50;;;28.14;33.19
25855;BME280;13680;49.936;11.344;2023-09-30T12:52:26;97606.69;;;28.31;30.40
25855;BME280;13680;49.936;11.344;2023-09-30T12:54:52;97604.22;;;28.80;29.98
25855;BME280;13680;49.936;11.344;2023-09-30T12:57:17;97602.31;;;28.48;30.66
25855;BME280;13680;49.936;11.344;2023-09-30T12:59:45;97605.84;;;28.60;29.76
25855;BME280;13680;49.936;11.344;2023-09-30T13:02:12;97609.81;;;28.55;29.87
25855;BME280;13680;49.936;11.344;2023-09-30T13:04:37;97600.28;;;28.78;30.55